Time;durP1;ratioP1;P1;durP2;ratioP2;P2;SDS_P1;SDS_P2;PMS_P1;PMS_P2;Temp;Humidity;BMP_temperature;BMP_pressure;BME280_temperature;BME280_humidity;BME280_pressure;Samples;Min_cycle;Max_cycle;Signal;HPM_P1;HPM_P2
2022/11/23 00:01:55;;;;;;;16.92;11.52;;;7.20;99.90;;;;;;5091491;28;20498;-62
2022/11/23 00:04:23;;;;;;;14.95;11.30;;;7.20;99.90;;;;;;5092430;28;20051;-61
2022/11/23 00:06:50;;;;;;;19.13;12.13;;;7.20;99.90;;;;;;5092944;28;20127;-61
2022/11/23 00:09:17;;;;;;;20.70;11.82;;;7.20;99.90;;;;;;5091671;28;21308;-61
2022/11/23 00:11:44;;;;;;;15.57;11.68;;;7.20;99.90;;;;;;5093916;28;20401;-61
2022/11/23 00:14:11;;;;;;;20.35;11.60;;;7.20;99.90;;;;;;5094099;28;20469;-61
2022/11/23 00:16:39;;;;;;;17.10;11.90;;;7.20;99.90;;;;;;5093217;28;20048;-61
2022/11/23 00:19:06;;;;;;;14.95;11.15;;;7.20;99.90;;;;;;5094006;28;20122;-62
2022/11/23 00:21:33;;;;;;;18.88;11.18;;;7.20;99.90;;;;;;5093685;28;20052;-61
2022/11/23 00:24:00;;;;;;;15.07;10.65;;;7.20;99.90;;;;;;5091168;28;20051;-62
2022/11/23 00:26:28;;;;;;;15.90;11.70;;;7.30;99.90;;;;;;5092255;28;20043;-62
2022/11/23 00:28:55;;;;;;;17.33;11.40;;;7.20;99.90;;;;;;5091360;28;20055;-62
2022/11/23 00:31:24;;;;;;;17.10;12.07;;;7.30;99.90;;;;;;5091881;28;20082;-61
2022/11/23 00:33:53;;;;;;;16.83;11.30;;;7.30;99.90;;;;;;5090620;28;20058;-63
2022/11/23 00:36:21;;;;;;;16.50;11.57;;;7.30;99.90;;;;;;5092999;28;20044;-62
2022/11/23 00:38:49;;;;;;;16.70;10.77;;;7.30;99.90;;;;;;5092976;28;20048;-61
2022/11/23 00:41:18;;;;;;;13.60;10.25;;;7.40;99.90;;;;;;5093064;28;20055;-62
2022/11/23 00:43:45;;;;;;;14.55;9.65;;;7.30;99.90;;;;;;5092349;28;20060;-62
2022/11/23 00:46:14;;;;;;;16.02;10.27;;;7.30;99.90;;;;;;5089144;28;20044;-62
2022/11/23 00:48:41;;;;;;;13.48;10.23;;;7.30;99.90;;;;;;5093605;28;20048;-61
2022/11/23 00:51:11;;;;;;;15.05;9.90;;;7.40;99.90;;;;;;5090222;28;20048;-61
2022/11/23 00:53:38;;;;;;;14.25;10.10;;;7.40;99.90;;;;;;5091973;28;20056;-61
2022/11/23 00:56:05;;;;;;;14.48;9.30;;;7.50;99.90;;;;;;5093104;28;20122;-62
2022/11/23 00:58:32;;;;;;;18.83;10.15;;;7.40;99.90;;;;;;5090720;28;20126;-62
2022/11/23 01:01:07;;;;;;;15.32;9.93;;;7.40;99.90;;;;;;5091770;28;20047;-61
2022/11/23 01:03:34;;;;;;;12.52;9.15;;;7.40;99.90;;;;;;5093306;28;20047;-61
2022/11/23 01:06:07;;;;;;;16.40;9.90;;;7.40;99.90;;;;;;5092418;28;20039;-61
2022/11/23 01:08:35;;;;;;;19.70;9.93;;;7.50;99.90;;;;;;5091922;28;20549;-61
2022/11/23 01:11:03;;;;;;;17.33;9.75;;;7.40;99.90;;;;;;5092522;28;20040;-61
2022/11/23 01:13:31;;;;;;;12.82;8.90;;;7.50;99.90;;;;;;5092272;28;20047;-60
2022/11/23 01:15:57;;;;;;;16.35;9.23;;;7.50;99.90;;;;;;5092810;28;20052;-60
2022/11/23 01:18:25;;;;;;;14.65;9.68;;;7.50;99.90;;;;;;5091731;28;20549;-61
2022/11/23 01:20:52;;;;;;;15.75;9.70;;;7.50;99.90;;;;;;5091107;28;20373;-61
2022/11/23 01:23:19;;;;;;;18.20;10.43;;;7.50;99.90;;;;;;5089424;28;20075;-63
2022/11/23 01:25:48;;;;;;;14.05;9.70;;;7.50;99.90;;;;;;5092664;28;20052;-63
2022/11/23 01:28:15;;;;;;;12.30;8.95;;;7.50;99.90;;;;;;5091159;28;20052;-61
2022/11/23 01:30:42;;;;;;;17.13;9.25;;;7.60;99.90;;;;;;5091130;28;20048;-61
2022/11/23 01:33:09;;;;;;;13.63;8.88;;;7.60;99.90;;;;;;5092105;28;20048;-63
2022/11/23 01:35:36;;;;;;;17.00;9.45;;;7.60;99.90;;;;;;5091050;28;20059;-62
2022/11/23 01:38:02;;;;;;;14.20;9.50;;;7.50;99.90;;;;;;5091700;28;20056;-63
2022/11/23 01:40:30;;;;;;;17.10;9.57;;;7.60;99.90;;;;;;5088315;28;20109;-61
2022/11/23 01:43:00;;;;;;;10.95;7.80;;;7.60;99.90;;;;;;5091214;28;20381;-61
2022/11/23 01:45:33;;;;;;;12.32;8.90;;;7.60;99.90;;;;;;5090377;28;20411;-61
2022/11/23 01:48:01;;;;;;;13.77;8.32;;;7.70;99.90;;;;;;5091257;28;20044;-62
2022/11/23 01:50:28;;;;;;;15.35;9.45;;;7.70;99.90;;;;;;5091990;28;20040;-62
2022/11/23 01:52:56;;;;;;;16.48;9.07;;;7.70;99.90;;;;;;5091351;28;20450;-61
2022/11/23 01:55:23;;;;;;;14.55;8.88;;;7.70;99.90;;;;;;5090417;28;20073;-61
2022/11/23 01:57:50;;;;;;;11.85;8.60;;;7.70;99.90;;;;;;5092289;28;20053;-62
2022/11/23 02:00:18;;;;;;;14.40;9.30;;;7.70;99.90;;;;;;5091959;28;20052;-63
2022/11/23 02:02:50;;;;;;;12.35;9.18;;;7.70;99.90;;;;;;5090672;28;20056;-62
2022/11/23 02:05:19;;;;;;;13.13;8.70;;;7.70;99.90;;;;;;5092408;28;20059;-61
2022/11/23 02:07:48;;;;;;;11.30;8.48;;;7.80;99.90;;;;;;5090692;28;20101;-62
2022/11/23 02:10:15;;;;;;;13.68;8.88;;;7.70;99.90;;;;;;5090190;28;20047;-62
2022/11/23 02:12:42;;;;;;;16.60;9.98;;;7.70;99.90;;;;;;5088257;28;20136;-61
2022/11/23 02:15:09;;;;;;;13.57;8.50;;;7.70;99.90;;;;;;5092288;28;20048;-62
2022/11/23 02:17:38;;;;;;;16.45;9.73;;;7.70;99.90;;;;;;5087882;28;20052;-61
2022/11/23 02:20:09;;;;;;;16.58;9.68;;;7.70;99.90;;;;;;5091010;28;20048;-62
2022/11/23 02:22:49;;;;;;;15.40;9.25;;;7.70;99.90;;;;;;5090232;28;20790;-61
2022/11/23 02:25:30;;;;;;;17.45;9.50;;;7.60;99.90;;;;;;5090894;28;20060;-62
2022/11/23 02:27:59;;;;;;;;;;;7.60;99.90;;;;;;5091034;28;20093;-62
2022/11/23 02:30:26;;;;;;;14.38;9.00;;;7.60;99.90;;;;;;5090122;28;20349;-63
2022/11/23 02:32:53;;;;;;;14.27;9.05;;;7.60;99.90;;;;;;5090773;28;20060;-62
2022/11/23 02:35:20;;;;;;;14.93;9.45;;;7.70;99.90;;;;;;5091932;28;20407;-62
2022/11/23 02:37:47;;;;;;;18.25;10.00;;;7.70;99.90;;;;;;5091320;28;20063;-61
2022/11/23 02:40:25;;;;;;;15.68;9.50;;;7.70;99.90;;;;;;5091497;28;20052;-62
2022/11/23 02:42:52;;;;;;;17.92;10.98;;;7.70;99.90;;;;;;5090622;28;20051;-62
2022/11/23 02:45:28;;;;;;;16.48;9.70;;;7.70;99.90;;;;;;5090169;28;20055;-62
2022/11/23 02:47:55;;;;;;;15.98;9.93;;;7.70;99.90;;;;;;5090692;28;20051;-62
2022/11/23 02:50:22;;;;;;;13.57;9.63;;;7.70;99.90;;;;;;5090151;28;20044;-61
2022/11/23 02:52:49;;;;;;;15.52;9.93;;;7.70;99.90;;;;;;5089757;28;20093;-61
2022/11/23 02:55:16;;;;;;;18.58;9.95;;;7.70;99.90;;;;;;5091673;28;20051;-62
2022/11/23 02:57:43;;;;;;;18.00;10.32;;;7.70;99.90;;;;;;5091774;28;20048;-62
2022/11/23 03:00:11;;;;;;;13.60;9.55;;;7.80;99.90;;;;;;5093394;28;20040;-61
2022/11/23 03:02:39;;;;;;;15.23;10.05;;;7.70;99.90;;;;;;5094584;28;20044;-62
2022/11/23 03:05:07;;;;;;;17.92;10.60;;;7.70;99.90;;;;;;5091597;28;20043;-61
2022/11/23 03:07:34;;;;;;;14.80;8.93;;;7.80;99.90;;;;;;5094050;28;20059;-61
2022/11/23 03:10:01;;;;;;;18.58;10.35;;;8.40;99.90;;;;;;5095533;28;20446;-62
2022/11/23 03:12:28;;;;;;;15.93;9.13;;;7.80;99.90;;;;;;5093102;28;20043;-62
2022/11/23 03:14:55;;;;;;;17.70;9.65;;;7.80;99.90;;;;;;5092350;28;20056;-61
2022/11/23 03:17:22;;;;;;;15.40;9.65;;;7.80;99.90;;;;;;5094805;28;20059;-62
2022/11/23 03:19:50;;;;;;;13.80;8.70;;;7.80;99.90;;;;;;5093321;28;20089;-62
2022/11/23 03:22:17;;;;;;;15.05;10.15;;;7.80;99.90;;;;;;5091307;28;20048;-62
2022/11/23 03:24:44;;;;;;;12.65;9.30;;;7.80;99.90;;;;;;5094992;28;20499;-61
2022/11/23 03:27:11;;;;;;;15.32;9.65;;;7.80;99.90;;;;;;5093433;28;20056;-62
2022/11/23 03:29:38;;;;;;;17.02;9.27;;;7.80;99.90;;;;;;5093260;28;20056;-62
2022/11/23 03:32:05;;;;;;;15.20;9.68;;;7.80;99.90;;;;;;5093198;28;20055;-62
2022/11/23 03:34:32;;;;;;;15.30;9.98;;;7.80;99.90;;;;;;5093185;28;20102;-62
2022/11/23 03:37:00;;;;;;;15.80;9.77;;;7.80;99.90;;;;;;5093584;28;20051;-62
2022/11/23 03:39:27;;;;;;;16.05;9.63;;;7.90;99.90;;;;;;5091074;28;20055;-61
2022/11/23 03:41:55;;;;;;;17.40;10.30;;;7.80;99.90;;;;;;5093924;28;20052;-62
2022/11/23 03:44:21;;;;;;;14.30;10.30;;;7.80;99.90;;;;;;5094404;28;20046;-61
2022/11/23 03:46:49;;;;;;;16.75;10.80;;;7.80;99.90;;;;;;5092893;28;20048;-61
2022/11/23 03:49:16;;;;;;;19.35;10.63;;;7.80;99.90;;;;;;5093131;28;20043;-61
2022/11/23 03:51:43;;;;;;;16.63;10.63;;;7.80;99.90;;;;;;5093026;28;20044;-61
2022/11/23 03:54:11;;;;;;;20.23;10.77;;;7.80;99.90;;;;;;5092870;28;20056;-62
2022/11/23 03:56:38;;;;;;;17.05;11.23;;;7.80;99.90;;;;;;5093192;28;20055;-62
2022/11/23 03:59:05;;;;;;;18.27;11.10;;;7.80;99.90;;;;;;5093251;28;20060;-63
2022/11/23 04:01:32;;;;;;;20.42;11.02;;;7.70;99.90;;;;;;5092352;28;20048;-63
2022/11/23 04:03:59;;;;;;;17.92;11.98;;;7.80;99.90;;;;;;5094059;28;20130;-61
2022/11/23 04:06:26;;;;;;;16.88;10.57;;;7.70;99.90;;;;;;5094223;28;20052;-62
2022/11/23 04:08:52;;;;;;;19.77;11.45;;;7.70;99.90;;;;;;5091274;28;20044;-62
2022/11/23 04:11:21;;;;;;;19.98;12.52;;;7.70;99.90;;;;;;5093596;28;20040;-63
2022/11/23 04:13:48;;;;;;;21.60;12.82;;;7.70;99.90;;;;;;5092869;28;20484;-63
2022/11/23 04:16:15;;;;;;;22.73;12.15;;;7.70;99.90;;;;;;5092388;28;20056;-62
2022/11/23 04:18:42;;;;;;;24.95;12.85;;;7.70;99.90;;;;;;5092870;28;20047;-62
2022/11/23 04:21:09;;;;;;;19.23;12.73;;;7.80;99.90;;;;;;5092918;28;20052;-61
2022/11/23 04:23:35;;;;;;;19.63;11.93;;;7.80;99.90;;;;;;5092146;28;20491;-62
2022/11/23 04:26:02;;;;;;;23.80;13.40;;;7.80;99.90;;;;;;5092200;28;20081;-61
2022/11/23 04:28:31;;;;;;;21.83;13.45;;;7.80;99.90;;;;;;5090890;28;20040;-61
2022/11/23 04:30:58;;;;;;;23.33;12.93;;;7.80;99.90;;;;;;5091635;28;20704;-61
2022/11/23 04:33:25;;;;;;;20.92;13.98;;;7.80;99.90;;;;;;5093789;28;20055;-61
2022/11/23 04:35:52;;;;;;;25.65;13.57;;;7.80;99.90;;;;;;5092648;28;20044;-61
2022/11/23 04:38:19;;;;;;;23.85;12.93;;;7.80;99.90;;;;;;5093011;28;20048;-61
2022/11/23 04:40:47;;;;;;;25.75;14.45;;;7.80;99.90;;;;;;5093079;28;20044;-61
2022/11/23 04:43:15;;;;;;;26.80;14.38;;;7.80;99.90;;;;;;5091714;28;20131;-62
2022/11/23 04:45:43;;;;;;;24.92;14.50;;;7.80;99.90;;;;;;5078691;28;20051;-62
2022/11/23 04:48:10;;;;;;;25.77;14.57;;;7.80;99.90;;;;;;5075857;28;20094;-62
2022/11/23 04:50:37;;;;;;;23.52;14.50;;;7.70;99.90;;;;;;5088023;28;20078;-62
2022/11/23 04:53:05;;;;;;;24.13;15.13;;;7.70;99.90;;;;;;5086667;28;20531;-62
2022/11/23 04:55:32;;;;;;;26.00;14.75;;;7.70;99.90;;;;;;5088102;28;20044;-63
2022/11/23 04:57:59;;;;;;;22.67;14.52;;;7.70;99.90;;;;;;5087839;28;20128;-62
2022/11/23 05:00:26;;;;;;;30.02;15.60;;;7.70;99.90;;;;;;5083723;28;20056;-61
2022/11/23 05:02:54;;;;;;;25.73;15.40;;;7.70;99.90;;;;;;5082959;28;20044;-61
2022/11/23 05:05:21;;;;;;;29.20;15.13;;;7.70;99.90;;;;;;5085962;28;20044;-61
2022/11/23 05:07:48;;;;;;;28.38;15.20;;;7.70;99.90;;;;;;5086412;28;20052;-61
2022/11/23 05:10:15;;;;;;;29.88;15.27;;;7.70;99.90;;;;;;5085603;28;20056;-62
2022/11/23 05:12:42;;;;;;;30.50;16.67;;;7.70;99.90;;;;;;5081328;28;20048;-61
2022/11/23 05:15:11;;;;;;;24.98;14.30;;;7.70;99.90;;;;;;5089805;28;20442;-63
2022/11/23 05:17:38;;;;;;;24.17;14.60;;;7.70;99.90;;;;;;5080883;28;20105;-62
2022/11/23 05:20:07;;;;;;;24.80;14.80;;;7.70;99.90;;;;;;5077809;28;20060;-62
2022/11/23 05:22:34;;;;;;;26.85;14.90;;;7.70;99.90;;;;;;5086420;28;20101;-62
2022/11/23 05:25:01;;;;;;;27.23;15.82;;;7.70;99.90;;;;;;5079950;28;20101;-61
2022/11/23 05:27:28;;;;;;;28.33;15.68;;;7.80;99.90;;;;;;5079554;28;20051;-61
2022/11/23 05:29:55;;;;;;;27.83;16.13;;;7.80;99.90;;;;;;5089504;28;20048;-62
2022/11/23 05:32:22;;;;;;;26.27;15.93;;;7.80;99.90;;;;;;5078724;28;20083;-63
2022/11/23 05:34:49;;;;;;;22.20;14.52;;;7.80;99.90;;;;;;5086411;28;20496;-61
2022/11/23 05:37:17;;;;;;;32.60;15.77;;;7.80;99.90;;;;;;5086001;28;20194;-62
2022/11/23 05:39:44;;;;;;;29.45;16.48;;;7.80;99.90;;;;;;5085048;28;20090;-63
2022/11/23 05:42:13;;;;;;;28.60;15.90;;;7.80;99.90;;;;;;5079148;28;20040;-63
2022/11/23 05:44:40;;;;;;;27.30;15.95;;;7.80;99.90;;;;;;5082354;28;20457;-62
2022/11/23 05:47:07;;;;;;;29.20;16.35;;;7.90;99.90;;;;;;5081674;28;20052;-62
2022/11/23 05:49:34;;;;;;;36.10;16.50;;;7.90;99.90;;;;;;5084673;28;20060;-61
2022/11/23 05:52:01;;;;;;;28.70;15.13;;;7.90;99.90;;;;;;5084058;28;20173;-62
2022/11/23 05:54:29;;;;;;;32.15;15.55;;;7.90;99.90;;;;;;5082103;28;20097;-62
2022/11/23 05:56:56;;;;;;;28.10;16.50;;;7.90;99.90;;;;;;5087791;28;20044;-62
2022/11/23 05:59:22;;;;;;;25.05;15.38;;;7.90;99.90;;;;;;5081849;28;20376;-62
2022/11/23 06:01:49;;;;;;;26.35;15.85;;;7.90;99.90;;;;;;5083781;28;20048;-62
2022/11/23 06:04:16;;;;;;;31.90;16.67;;;8.00;99.90;;;;;;5085464;28;20040;-62
2022/11/23 06:06:43;;;;;;;29.88;16.50;;;7.90;99.90;;;;;;5082502;28;20056;-62
2022/11/23 06:09:10;;;;;;;23.85;15.20;;;8.00;99.90;;;;;;5082161;28;20044;-62
2022/11/23 06:11:38;;;;;;;25.17;15.55;;;8.00;99.90;;;;;;5083981;28;20078;-61
2022/11/23 06:14:05;;;;;;;25.95;15.23;;;8.00;99.90;;;;;;5082268;28;20055;-62
2022/11/23 06:16:32;;;;;;;27.17;15.90;;;8.00;99.90;;;;;;5086941;28;20059;-61
2022/11/23 06:18:59;;;;;;;29.27;15.57;;;8.00;99.90;;;;;;5086828;28;20504;-62
2022/11/23 06:21:26;;;;;;;22.98;15.50;;;8.00;99.90;;;;;;5087772;28;20052;-62
2022/11/23 06:23:53;;;;;;;24.73;16.05;;;8.00;99.90;;;;;;5081993;28;20044;-62
2022/11/23 06:26:20;;;;;;;25.00;14.45;;;8.00;99.90;;;;;;5083193;28;20063;-64
2022/11/23 06:28:48;;;;;;;33.47;15.43;;;8.00;99.90;;;;;;5082720;28;20101;-62
2022/11/23 06:31:15;;;;;;;22.92;14.65;;;8.00;99.90;;;;;;5087910;28;20461;-61
2022/11/23 06:33:42;;;;;;;21.40;13.20;;;8.00;99.90;;;;;;5094143;28;20047;-61
2022/11/23 06:36:11;;;;;;;23.30;14.48;;;8.00;99.90;;;;;;5088896;28;20446;-61
2022/11/23 06:38:38;;;;;;;22.52;13.55;;;8.00;99.90;;;;;;5094821;28;20048;-62
2022/11/23 06:41:05;;;;;;;23.80;14.13;;;8.00;99.90;;;;;;5093471;28;20048;-62
2022/11/23 06:43:32;;;;;;;22.73;12.70;;;8.00;99.90;;;;;;5095212;28;20987;-60
2022/11/23 06:46:03;;;;;;;23.27;11.45;;;7.90;99.90;;;;;;5095779;28;20407;-62
2022/11/23 06:48:30;;;;;;;25.38;11.45;;;7.90;99.90;;;;;;5095711;28;20545;-62
2022/11/23 06:50:58;;;;;;;15.98;11.25;;;8.00;99.90;;;;;;5095059;28;20044;-61
2022/11/23 06:53:25;;;;;;;24.00;11.50;;;8.00;99.90;;;;;;5094118;28;20056;-62
2022/11/23 06:55:52;;;;;;;23.33;12.10;;;8.00;99.90;;;;;;5093668;28;20055;-62
2022/11/23 06:58:19;;;;;;;19.88;11.90;;;8.00;99.90;;;;;;5094099;28;20548;-62
2022/11/23 07:00:46;;;;;;;22.13;12.52;;;8.00;99.90;;;;;;5093736;28;20055;-62
2022/11/23 07:03:19;;;;;;;18.33;10.13;;;7.90;99.90;;;;;;5095215;28;20109;-63
2022/11/23 07:05:46;;;;;;;19.42;10.48;;;7.90;99.90;;;;;;5093563;28;20105;-61
2022/11/23 07:08:13;;;;;;;18.27;10.50;;;7.90;99.90;;;;;;5093837;28;20052;-61
2022/11/23 07:10:40;;;;;;;16.20;9.10;;;7.80;99.90;;;;;;5094794;28;20048;-63
2022/11/23 07:13:09;;;;;;;18.52;10.55;;;7.80;99.90;;;;;;5093802;28;20040;-61
2022/11/23 07:15:37;;;;;;;14.70;9.75;;;7.80;99.90;;;;;;5093243;28;20059;-62
2022/11/23 07:18:04;;;;;;;18.88;11.15;;;7.80;99.90;;;;;;5094378;28;20063;-62
2022/11/23 07:20:32;;;;;;;16.75;9.40;;;7.80;99.90;;;;;;5093468;28;20056;-61
2022/11/23 07:23:01;;;;;;;16.60;9.48;;;7.80;99.90;;;;;;5094806;28;20549;-62
2022/11/23 07:25:28;;;;;;;20.30;9.77;;;7.70;99.90;;;;;;5092963;28;20134;-62
2022/11/23 07:27:56;;;;;;;18.10;9.15;;;7.70;99.90;;;;;;5093348;28;20048;-62
2022/11/23 07:30:23;;;;;;;16.65;9.43;;;7.70;99.90;;;;;;5093666;28;20051;-62
2022/11/23 07:32:50;;;;;;;15.48;8.73;;;7.70;99.90;;;;;;5092752;28;20040;-64
2022/11/23 07:35:17;;;;;;;15.30;8.30;;;7.70;99.90;;;;;;5093542;28;20055;-62
2022/11/23 07:37:46;;;;;;;15.00;7.93;;;7.70;99.90;;;;;;5092361;28;20452;-61
2022/11/23 07:40:13;;;;;;;16.17;8.35;;;7.70;99.90;;;;;;5092481;28;20052;-61
2022/11/23 07:42:40;;;;;;;16.25;8.15;;;7.70;99.90;;;;;;5094370;28;20495;-63
2022/11/23 07:45:09;;;;;;;16.17;8.15;;;7.70;99.90;;;;;;5093227;28;20521;-62
2022/11/23 07:47:36;;;;;;;15.18;6.95;;;7.70;99.90;;;;;;5093887;28;20056;-61
2022/11/23 07:50:03;;;;;;;15.13;7.30;;;7.70;99.90;;;;;;5094434;28;20054;-62
2022/11/23 07:52:30;;;;;;;12.93;7.18;;;7.70;99.90;;;;;;5093137;28;20047;-62
2022/11/23 07:54:59;;;;;;;14.60;8.30;;;7.70;99.90;;;;;;5093589;28;20044;-61
2022/11/23 07:57:27;;;;;;;14.23;7.70;;;7.80;99.90;;;;;;5093190;28;20511;-61
2022/11/23 07:59:54;;;;;;;15.13;7.25;;;7.70;99.90;;;;;;5090899;28;20480;-62
2022/11/23 08:02:21;;;;;;;13.90;7.82;;;7.70;99.90;;;;;;5092563;28;20039;-62
2022/11/23 08:04:48;;;;;;;13.38;6.88;;;7.80;99.90;;;;;;5092040;28;20090;-63
2022/11/23 08:07:15;;;;;;;13.02;7.88;;;7.70;99.90;;;;;;5093089;28;20044;-62
2022/11/23 08:09:42;;;;;;;17.50;7.10;;;7.80;99.90;;;;;;5093985;28;20052;-64
2022/11/23 08:12:10;;;;;;;16.85;7.20;;;7.80;99.90;;;;;;5093743;28;20044;-63
2022/11/23 08:14:37;;;;;;;12.75;6.72;;;7.80;99.90;;;;;;5093381;28;20046;-61
2022/11/23 08:17:05;;;;;;;15.60;6.90;;;7.80;99.90;;;;;;5093839;28;20040;-62
2022/11/23 08:19:32;;;;;;;11.80;6.65;;;7.90;99.90;;;;;;5092842;28;20048;-63
2022/11/23 08:21:58;;;;;;;13.88;6.97;;;7.90;99.90;;;;;;5090913;28;20518;-63
2022/11/23 08:24:25;;;;;;;15.40;6.32;;;7.90;99.90;;;;;;5092685;28;20456;-63
2022/11/23 08:26:52;;;;;;;10.45;5.97;;;8.00;99.90;;;;;;5092601;28;20052;-62
2022/11/23 08:29:20;;;;;;;17.95;6.82;;;8.00;99.90;;;;;;5093372;28;20407;-61
2022/11/23 08:31:47;;;;;;;12.93;5.55;;;8.00;99.90;;;;;;5090080;28;20043;-64
2022/11/23 08:34:14;;;;;;;10.07;5.88;;;8.10;99.90;;;;;;5093483;28;20047;-63
2022/11/23 08:36:41;;;;;;;10.68;6.03;;;8.10;99.90;;;;;;5092901;28;20404;-62
2022/11/23 08:39:09;;;;;;;10.48;5.63;;;8.10;99.90;;;;;;5093715;28;20044;-62
2022/11/23 08:41:36;;;;;;;13.43;5.70;;;8.10;99.90;;;;;;5092279;28;20419;-62
2022/11/23 08:44:03;;;;;;;12.68;6.00;;;8.10;99.90;;;;;;5091626;28;20048;-63
2022/11/23 08:46:32;;;;;;;10.95;6.40;;;8.10;99.90;;;;;;5093413;28;20446;-62
2022/11/23 08:48:58;;;;;;;8.48;4.90;;;8.20;99.90;;;;;;5093433;28;20044;-62
2022/11/23 08:51:26;;;;;;;12.15;5.28;;;8.20;99.90;;;;;;5091497;28;20048;-63
2022/11/23 08:53:53;;;;;;;9.95;5.10;;;8.20;99.90;;;;;;5093178;28;20048;-63
2022/11/23 08:56:21;;;;;;;10.68;5.20;;;8.20;99.90;;;;;;5091544;28;20135;-63
2022/11/23 08:58:49;;;;;;;14.75;6.75;;;8.30;99.90;;;;;;5091848;28;20568;-62
2022/11/23 09:01:18;;;;;;;13.25;5.45;;;8.30;99.90;;;;;;5092202;28;20568;-62
2022/11/23 09:03:47;;;;;;;12.70;5.75;;;8.30;99.90;;;;;;5092164;28;20040;-63
2022/11/23 09:06:14;;;;;;;16.23;5.35;;;8.50;99.90;;;;;;5091624;28;20106;-61
2022/11/23 09:08:42;;;;;;;13.10;5.38;;;8.60;99.90;;;;;;5091767;28;20126;-61
2022/11/23 09:11:13;;;;;;;11.35;5.68;;;8.60;99.90;;;;;;5082498;28;20052;-67
2022/11/23 09:13:42;;;;;;;12.60;5.43;;;8.60;99.90;;;;;;5077870;28;20125;-66
2022/11/23 09:16:09;;;;;;;12.50;5.50;;;8.70;99.90;;;;;;5084336;28;20051;-66
2022/11/23 09:18:36;;;;;;;13.40;5.50;;;8.70;99.90;;;;;;5084029;28;20048;-67
2022/11/23 09:21:06;;;;;;;10.65;5.20;;;8.70;99.90;;;;;;5086566;28;20052;-67
2022/11/23 09:23:34;;;;;;;11.15;5.22;;;8.70;99.90;;;;;;5084319;28;20399;-65
2022/11/23 09:26:02;;;;;;;15.07;5.30;;;8.70;99.90;;;;;;5087969;28;20040;-67
2022/11/23 09:28:30;;;;;;;10.07;4.90;;;8.70;99.90;;;;;;5086670;28;20407;-66
2022/11/23 09:30:57;;;;;;;12.93;4.78;;;8.70;99.90;;;;;;5086918;28;20500;-67
2022/11/23 09:33:25;;;;;;;16.70;5.10;;;8.80;99.90;;;;;;5087258;28;20047;-66
2022/11/23 09:35:57;;;;;;;10.38;4.72;;;9.00;99.90;;;;;;5085825;28;20445;-67
2022/11/23 09:38:25;;;;;;;10.68;4.70;;;9.10;99.90;;;;;;5083610;28;20075;-67
2022/11/23 09:41:04;;;;;;;14.80;5.68;;;9.10;99.90;;;;;;5090624;28;20047;-65
2022/11/23 09:43:45;;;;;;;10.90;4.85;;;9.10;99.90;;;;;;5087448;28;20070;-67
2022/11/23 09:46:21;;;;;;;13.38;5.13;;;9.10;99.90;;;;;;5084654;28;20082;-68
2022/11/23 09:49:09;;;;;;;13.18;5.50;;;9.20;99.90;;;;;;5082763;28;20142;-65
2022/11/23 09:51:38;;;;;;;8.23;4.38;;;9.20;99.90;;;;;;5085100;28;20059;-64
2022/11/23 09:54:15;;;;;;;11.60;4.65;;;9.30;99.90;;;;;;5081194;28;20079;-66
2022/11/23 09:56:45;;;;;;;10.45;3.70;;;9.20;99.90;;;;;;5086458;28;20057;-66
2022/11/23 09:59:17;;;;;;;11.30;4.13;;;9.20;99.90;;;;;;5087502;28;20052;-67
2022/11/23 10:01:43;;;;;;;11.75;4.38;;;9.20;99.90;;;;;;5083876;28;20306;-66
2022/11/23 10:04:17;;;;;;;11.18;4.32;;;9.20;99.90;;;;;;5084601;28;20089;-66
2022/11/23 10:06:44;;;;;;;7.15;3.92;;;9.20;99.90;;;;;;5089595;28;20074;-66
2022/11/23 10:09:28;;;;;;;12.07;4.80;;;9.10;99.90;;;;;;5090258;28;20418;-66
2022/11/23 10:12:17;;;;;;;12.45;3.95;;;9.10;99.90;;;;;;5091505;28;20492;-65
2022/11/23 10:14:57;;;;;;;11.70;4.55;;;9.10;99.90;;;;;;5090407;28;20048;-66
2022/11/23 10:17:39;;;;;;;12.65;3.97;;;9.10;99.90;;;;;;5090935;28;20058;-66
2022/11/23 10:20:21;;;;;;;12.38;4.50;;;9.10;99.90;;;;;;5092028;28;20408;-65
2022/11/23 10:22:56;;;;;;;11.70;4.28;;;9.10;99.90;;;;;;5091290;28;20043;-66
2022/11/23 10:25:27;;;;;;;10.18;4.07;;;9.10;99.90;;;;;;5092166;28;20044;-66
2022/11/23 10:27:58;;;;;;;9.23;4.85;;;9.10;99.90;;;;;;5090022;28;20048;-66
2022/11/23 10:30:25;;;;;;;8.23;4.18;;;9.10;99.90;;;;;;5090836;28;20051;-65
2022/11/23 10:32:58;;;;;;;12.23;4.53;;;9.00;99.90;;;;;;5091646;28;20040;-65
2022/11/23 10:35:29;;;;;;;17.13;4.80;;;9.10;99.90;;;;;;5090979;28;20051;-65
2022/11/23 10:38:01;;;;;;;;;;;9.10;99.90;;;;;;5091067;28;20121;-66
2022/11/23 10:40:30;;;;;;;10.60;4.20;;;9.10;99.90;;;;;;5090613;28;19931;-66
2022/11/23 10:43:01;;;;;;;8.68;4.18;;;9.10;99.90;;;;;;5089267;28;20558;-66
2022/11/23 10:45:30;;;;;;;7.55;3.90;;;9.10;99.90;;;;;;5090472;28;20134;-66
2022/11/23 10:47:58;;;;;;;12.68;4.05;;;9.10;99.90;;;;;;5091462;28;20055;-66
2022/11/23 10:50:28;;;;;;;11.55;4.60;;;9.00;99.90;;;;;;5089936;28;20127;-65
2022/11/23 10:52:57;;;;;;;9.40;4.07;;;9.00;99.90;;;;;;5088034;28;20553;-66
2022/11/23 10:55:32;;;;;;;9.30;4.20;;;9.00;99.90;;;;;;5090546;28;20055;-67
2022/11/23 10:57:59;;;;;;;13.85;4.75;;;9.00;99.90;;;;;;5091123;28;20055;-66
2022/11/23 11:00:28;;;;;;;6.43;4.03;;;8.90;99.90;;;;;;5090351;28;20048;-66
2022/11/23 11:02:57;;;;;;;11.60;3.83;;;9.00;99.90;;;;;;5090140;28;20079;-66
2022/11/23 11:05:32;;;;;;;12.05;4.75;;;9.00;99.90;;;;;;5091622;28;20048;-66
2022/11/23 11:08:01;;;;;;;9.57;4.32;;;9.10;99.90;;;;;;5090696;28;20494;-66
2022/11/23 11:10:37;;;;;;;11.25;4.13;;;9.20;99.90;;;;;;5087916;28;20519;-66
2022/11/23 11:13:21;;;;;;;12.05;3.97;;;9.30;99.90;;;;;;5090261;28;20040;-66
2022/11/23 11:15:53;;;;;;;12.32;3.65;;;9.40;99.90;;;;;;5089639;28;20097;-67
2022/11/23 11:18:20;;;;;;;8.52;3.60;;;9.80;99.90;;;;;;5089959;28;20136;-67
2022/11/23 11:20:47;;;;;;;14.40;4.28;;;10.40;99.90;;;;;;5093891;28;20435;-66
2022/11/23 11:23:20;;;;;;;13.20;4.13;;;11.20;99.90;;;;;;5093957;28;20476;-65
2022/11/23 11:25:51;;;;;;;11.75;3.83;;;11.70;99.90;;;;;;5092973;28;20052;-66
2022/11/23 11:28:27;;;;;;;9.73;3.10;;;12.40;99.90;;;;;;5093263;28;20108;-65
2022/11/23 11:31:14;;;;;;;11.32;3.35;;;13.70;99.90;;;;;;5093965;28;20399;-66
2022/11/23 11:33:50;;;;;;;6.50;3.00;;;14.90;99.90;;;;;;5093270;28;20065;-66
2022/11/23 11:36:18;;;;;;;9.88;3.40;;;16.00;99.90;;;;;;5094837;28;20530;-66
2022/11/23 11:38:48;;;;;;;7.18;2.65;;;17.00;99.90;;;;;;5094189;28;20059;-66
2022/11/23 11:41:23;;;;;;;;;;;17.60;99.90;;;;;;5093758;28;20056;-66
2022/11/23 11:43:58;;;;;;;9.48;3.13;;;17.60;99.90;;;;;;5094300;28;20303;-67
2022/11/23 11:46:31;;;;;;;7.35;2.67;;;17.40;99.90;;;;;;5094146;28;20048;-66
2022/11/23 11:49:04;;;;;;;5.47;2.50;;;16.80;99.90;;;;;;5091442;28;20062;-67
2022/11/23 11:51:35;;;;;;;9.18;2.95;;;16.50;99.90;;;;;;5094342;28;20039;-65
2022/11/23 11:54:06;;;;;;;10.98;3.60;;;16.30;99.90;;;;;;5093469;28;20400;-66
2022/11/23 11:56:39;;;;;;;10.43;3.00;;;16.70;99.90;;;;;;5093409;28;20044;-66
2022/11/23 11:59:13;;;;;;;11.30;2.53;;;17.40;99.90;;;;;;5094601;28;20044;-66
2022/11/23 12:01:48;;;;;;;10.43;3.03;;;18.20;99.90;;;;;;5094343;28;20161;-66
2022/11/23 12:04:20;;;;;;;9.15;3.78;;;18.40;99.90;;;;;;5092810;28;20058;-67
2022/11/23 12:06:52;;;;;;;10.10;2.63;;;18.50;99.90;;;;;;5092299;28;20605;-66
2022/11/23 12:09:24;;;;;;;7.78;2.55;;;18.80;99.90;;;;;;5090686;28;20051;-66
2022/11/23 12:11:52;;;;;;;11.18;2.70;;;18.80;99.90;;;;;;5094171;28;20055;-67
2022/11/23 12:14:20;;;;;;;10.52;3.20;;;18.80;99.90;;;;;;5091905;28;20122;-67
2022/11/23 12:16:54;;;;;;;8.93;3.30;;;19.20;99.90;;;;;;5090750;28;20048;-67
2022/11/23 12:19:25;;;;;;;9.43;2.78;;;19.50;98.30;;;;;;5090715;28;20048;-67
2022/11/23 12:22:16;;;;;;;12.68;3.65;;;20.00;99.90;;;;;;5093178;28;20491;-67
2022/11/23 12:24:59;;;;;;;7.07;2.20;;;20.60;98.00;;;;;;5089444;28;20063;-67
2022/11/23 12:27:36;;;;;;;11.65;2.95;;;20.60;95.60;;;;;;5092247;28;20056;-67
2022/11/23 12:30:24;;;;;;;9.23;2.92;;;20.40;96.00;;;;;;5092122;28;20052;-67
2022/11/23 12:33:21;;;;;;;10.48;3.30;;;19.90;94.80;;;;;;5090588;28;20040;-67
2022/11/23 12:35:59;;;;;;;7.93;2.50;;;19.50;96.60;;;;;;5072888;28;20047;-66
2022/11/23 12:38:34;;;;;;;11.88;2.88;;;19.40;96.80;;;;;;5092621;28;20125;-66
2022/11/23 12:41:30;;;;;;;9.98;3.20;;;19.40;96.70;;;;;;5092451;28;20087;-66
2022/11/23 12:44:14;;;;;;;9.23;2.47;;;19.10;95.90;;;;;;5080037;28;20961;-66
2022/11/23 12:46:48;;;;;;;7.43;2.85;;;18.70;95.90;;;;;;5084825;28;20056;-66
2022/11/23 12:49:28;;;;;;;13.63;3.33;;;18.40;97.30;;;;;;5087507;28;20056;-65
2022/11/23 12:52:03;;;;;;;8.83;2.70;;;18.40;96.90;;;;;;5089314;28;20056;-66
2022/11/23 12:54:47;;;;;;;9.18;3.60;;;18.50;98.00;;;;;;5086957;28;20298;-66